Fogelsville, Pennsylvania
Current Conditions -  °F | °C
As of 8:15 AM on Friday 28 Nov 2014 (Local Time) from KXLL Reporting Station
Clear Clear  
Wind Chill: 22°   Ceiling: Unl
Heat Index: 32°   Visibility: 10mi
Dew Point: 23°   Wind: 14mph
Humidity: 69%   Direction: 320°NW
Pressure: 30.22"   Gusts: 18mph
Location:  40.58°N, 75.63°W
Report Text: KXLL 281315Z AUTO 32012G16KT 10SM CLR 00/M05 A3022 RMK AO2
Loading
Personal Weather Stations






























Interactive Weather Map New forecast layout! Learn more

10-Day Weather Forecast

Advertisements
Track Severe Weather on mobile